Observation data for Olton on 11/14/2019      Previous  Date  Next       Current Mesonet Observations  Soil Data  Daily Summary Page  Observations in Plain Language
KONS 140600Z 00009KT 03/M03 A3012 RMK A01 T00251030  RH  068%=      5-min Rain = 0
KONS 140605Z 00009KT 02/M03 A3012 RMK A01 T00231031  RH  068%=      5-min Rain = 0
KONS 140610Z 36008KT 02/M03 A3012 RMK A01 T00231032  RH  068%=      5-min Rain = 0
KONS 140615Z 35008KT 02/M03 A3013 RMK A01 T00201033  RH  069%=      5-min Rain = 0
KONS 140620Z 35009KT 02/M03 A3013 RMK A01 T00191034  RH  069%=      5-min Rain = 0
KONS 140625Z 35009KT 02/M04 A3013 RMK A01 T00201035  RH  068%=      5-min Rain = 0
KONS 140630Z 35011KT 02/M04 A3013 RMK A01 T00231038  RH  065%=      5-min Rain = 0
KONS 140635Z 35012KT 02/M04 A3013 RMK A01 T00241040  RH  063%=      5-min Rain = 0
KONS 140640Z 00012KT 03/M04 A3013 RMK A01 T00251042  RH  062%=      5-min Rain = 0
KONS 140645Z 00013KT 03/M05 A3013 RMK A01 T00281045  RH  059%=      5-min Rain = 0
KONS 140650Z 00013KT 03/M05 A3013 RMK A01 T00291046  RH  058%=      5-min Rain = 0
KONS 140655Z 00013KT 03/M05 A3013 RMK A01 T00301046  RH  058%=      5-min Rain = 0
KONS 140700Z 00013KT 03/M05 A3013 RMK A01 T00311048  RH  057%=      5-min Rain = 0
KONS 140705Z 00013KT 03/M05 A3013 RMK A01 T00281049  RH  057%=      5-min Rain = 0
KONS 140710Z 00012KT 03/M05 A3014 RMK A01 T00271050  RH  057%=      5-min Rain = 0
KONS 140715Z 00012KT 03/M05 A3014 RMK A01 T00261051  RH  057%=      5-min Rain = 0
KONS 140720Z 01012KT 03/M05 A3014 RMK A01 T00261053  RH  057%=      5-min Rain = 0
KONS 140725Z 01011KT 03/M05 A3014 RMK A01 T00251054  RH  057%=      5-min Rain = 0
KONS 140730Z 01012KT 03/M06 A3014 RMK A01 T00251055  RH  056%=      5-min Rain = 0
KONS 140735Z 01012KT 03/M06 A3014 RMK A01 T00261055  RH  056%=      5-min Rain = 0
KONS 140740Z 01012KT 03/M06 A3014 RMK A01 T00251056  RH  056%=      5-min Rain = 0
KONS 140745Z 01011KT 02/M06 A3015 RMK A01 T00241056  RH  056%=      5-min Rain = 0
KONS 140750Z 01012KT 02/M06 A3015 RMK A01 T00241056  RH  056%=      5-min Rain = 0
KONS 140755Z 01011KT 02/M06 A3015 RMK A01 T00221056  RH  057%=      5-min Rain = 0
KONS 140800Z 01011KT 02/M06 A3015 RMK A01 T00221056  RH  057%=      5-min Rain = 0
KONS 140805Z 01011KT 02/M06 A3016 RMK A01 T00211056  RH  057%=      5-min Rain = 0
KONS 140810Z 01010KT 02/M06 A3016 RMK A01 T00211056  RH  057%=      5-min Rain = 0
KONS 140815Z 01011KT 02/M06 A3016 RMK A01 T00211056  RH  057%=      5-min Rain = 0
KONS 140820Z 01011KT 02/M06 A3017 RMK A01 T00201056  RH  058%=      5-min Rain = 0
KONS 140825Z 00011KT 02/M06 A3017 RMK A01 T00201056  RH  058%=      5-min Rain = 0
KONS 140830Z 00011KT 02/M06 A3017 RMK A01 T00191056  RH  058%=      5-min Rain = 0
KONS 140835Z 01010KT 02/M06 A3018 RMK A01 T00191056  RH  058%=      5-min Rain = 0
KONS 140840Z 01010KT 02/M06 A3018 RMK A01 T00161056  RH  059%=      5-min Rain = 0
KONS 140845Z 01010KT 02/M06 A3018 RMK A01 T00151056  RH  060%=      5-min Rain = 0
KONS 140850Z 01010KT 01/M06 A3018 RMK A01 T00141055  RH  061%=      5-min Rain = 0
KONS 140855Z 01011KT 01/M06 A3019 RMK A01 T00121055  RH  062%=      5-min Rain = 0
KONS 140900Z 01010KT 01/M06 A3019 RMK A01 T00101055  RH  062%=      5-min Rain = 0
KONS 140905Z 01010KT 01/M06 A3019 RMK A01 T00091055  RH  063%=      5-min Rain = 0
KONS 140910Z 01010KT 01/M05 A3019 RMK A01 T00081054  RH  064%=      5-min Rain = 0
KONS 140915Z 01010KT 01/M05 A3019 RMK A01 T00061054  RH  064%=      5-min Rain = 0
KONS 140920Z 01011KT 01/M05 A302 RMK A01 T00071054  RH  065%=      5-min Rain = 0
KONS 140925Z 01010KT 01/M05 A302 RMK A01 T00061054  RH  065%=      5-min Rain = 0
KONS 140930Z 01010KT 01/M05 A302 RMK A01 T00061054  RH  065%=      5-min Rain = 0
KONS 140935Z 01009KT 01/M05 A302 RMK A01 T00061054  RH  065%=      5-min Rain = 0
KONS 140940Z 01009KT 01/M05 A302 RMK A01 T00061054  RH  065%=      5-min Rain = 0
KONS 140945Z 01008KT 01/M06 A3021 RMK A01 T00051055  RH  065%=      5-min Rain = 0
KONS 140950Z 01009KT 00/M06 A3021 RMK A01 T00041055  RH  066%=      5-min Rain = 0
KONS 140955Z 01008KT 00/M06 A3021 RMK A01 T00011055  RH  067%=      5-min Rain = 0
KONS 141000Z 01008KT M00/M06 A3021 RMK A01 T10031056  RH  068%=      5-min Rain = 0
KONS 141005Z 01009KT M01/M06 A3021 RMK A01 T10051057  RH  069%=      5-min Rain = 0
KONS 141010Z 01009KT M01/M06 A3021 RMK A01 T10051057  RH  069%=      5-min Rain = 0
KONS 141015Z 01009KT M01/M06 A3021 RMK A01 T10061057  RH  069%=      5-min Rain = 0
KONS 141020Z 01009KT M01/M06 A3021 RMK A01 T10051057  RH  069%=      5-min Rain = 0
KONS 141025Z 01009KT M01/M06 A3021 RMK A01 T10051057  RH  069%=      5-min Rain = 0
KONS 141030Z 01009KT M01/M06 A3021 RMK A01 T10051057  RH  069%=      5-min Rain = 0
KONS 141035Z 01009KT M01/M06 A3021 RMK A01 T10061056  RH  070%=      5-min Rain = 0
KONS 141040Z 01010KT M01/M06 A3022 RMK A01 T10051055  RH  069%=      5-min Rain = 0
KONS 141045Z 01009KT M00/M06 A3022 RMK A01 T10041055  RH  069%=      5-min Rain = 0
KONS 141050Z 01009KT M01/M06 A3022 RMK A01 T10051055  RH  070%=      5-min Rain = 0
KONS 141055Z 01009KT M01/M05 A3022 RMK A01 T10061054  RH  070%=      5-min Rain = 0
KONS 141100Z 02008KT M01/M05 A3022 RMK A01 T10071054  RH  071%=      5-min Rain = 0
KONS 141105Z 03007KT M01/M05 A3023 RMK A01 T10081054  RH  072%=      5-min Rain = 0
KONS 141110Z 03007KT M01/M06 A3023 RMK A01 T10101055  RH  072%=      5-min Rain = 0
KONS 141115Z 03007KT M01/M05 A3023 RMK A01 T10101054  RH  073%=      5-min Rain = 0
KONS 141120Z 03007KT M01/M05 A3024 RMK A01 T10101054  RH  073%=      5-min Rain = 0
KONS 141125Z 03007KT M01/M05 A3024 RMK A01 T10091053  RH  073%=      5-min Rain = 0
KONS 141130Z 03007KT M01/M05 A3024 RMK A01 T10101053  RH  074%=      5-min Rain = 0
KONS 141135Z 03007KT M01/M05 A3024 RMK A01 T10111052  RH  074%=      5-min Rain = 0
KONS 141140Z 04007KT M01/M05 A3024 RMK A01 T10101051  RH  074%=      5-min Rain = 0
KONS 141145Z 03007KT M01/M05 A3025 RMK A01 T10111052  RH  075%=      5-min Rain = 0
KONS 141150Z 02008KT M01/M05 A3025 RMK A01 T10141052  RH  076%=      5-min Rain = 0
KONS 141155Z 02008KT M02/M05 A3025 RMK A01 T10151052  RH  076%=      5-min Rain = 0
KONS 141200Z 01007KT M02/M05 A3025 RMK A01 T10171054  RH  077%=      5-min Rain = 0
KONS 141205Z 01006KT M02/M05 A3026 RMK A01 T10191054  RH  078%=      5-min Rain = 0
KONS 141210Z 01007KT M02/M06 A3026 RMK A01 T10221056  RH  079%=      5-min Rain = 0
KONS 141215Z 01008KT M02/M05 A3026 RMK A01 T10231054  RH  080%=      5-min Rain = 0
KONS 141220Z 01008KT M02/M05 A3026 RMK A01 T10201052  RH  080%=      5-min Rain = 0
KONS 141225Z 01007KT M02/M05 A3026 RMK A01 T10201052  RH  080%=      5-min Rain = 0
KONS 141230Z 01007KT M02/M05 A3027 RMK A01 T10201051  RH  080%=      5-min Rain = 0
KONS 141235Z 00008KT M02/M05 A3027 RMK A01 T10221052  RH  081%=      5-min Rain = 0
KONS 141240Z 00008KT M02/M05 A3027 RMK A01 T10211051  RH  080%=      5-min Rain = 0
KONS 141245Z 01008KT M02/M05 A3027 RMK A01 T10201051  RH  080%=      5-min Rain = 0
KONS 141250Z 01008KT M02/M05 A3028 RMK A01 T10201052  RH  080%=      5-min Rain = 0
KONS 141255Z 01009KT M02/M05 A3028 RMK A01 T10191051  RH  080%=      5-min Rain = 0
KONS 141300Z 01009KT M02/M05 A3028 RMK A01 T10181050  RH  079%=      5-min Rain = 0
KONS 141305Z 01009KT M02/M05 A3029 RMK A01 T10161050  RH  079%=      5-min Rain = 0
KONS 141310Z 01009KT M02/M05 A3029 RMK A01 T10161049  RH  079%=      5-min Rain = 0
KONS 141315Z 01008KT M02/M05 A3029 RMK A01 T10161050  RH  079%=      5-min Rain = 0
KONS 141320Z 01008KT M02/M05 A303 RMK A01 T10171049  RH  079%=      5-min Rain = 0
KONS 141325Z 02008KT M02/M05 A303 RMK A01 T10171049  RH  079%=      5-min Rain = 0
KONS 141330Z 02008KT M02/M05 A303 RMK A01 T10151047  RH  080%=      5-min Rain = 0
KONS 141335Z 02008KT M01/M04 A3031 RMK A01 T10111043  RH  079%=      5-min Rain = 0
KONS 141340Z 02008KT M01/M04 A3031 RMK A01 T10081043  RH  078%=      5-min Rain = 0
KONS 141345Z 02008KT M01/M04 A3032 RMK A01 T10071043  RH  078%=      5-min Rain = 0
KONS 141350Z 02007KT M01/M04 A3032 RMK A01 T10071043  RH  077%=      5-min Rain = 0
KONS 141355Z 02008KT M01/M04 A3032 RMK A01 T10061043  RH  077%=      5-min Rain = 0
KONS 141400Z 02007KT M00/M04 A3033 RMK A01 T10041043  RH  076%=      5-min Rain = 0
KONS 141405Z 01006KT M00/M04 A3034 RMK A01 T10021043  RH  075%=      5-min Rain = 0
KONS 141410Z 01006KT 00/04 A3034 RMK A01 T00-00-42  RH  075%=      5-min Rain = 0
KONS 141415Z 01006KT 00/M04 A3034 RMK A01 T00031040  RH  074%=      5-min Rain = 0
KONS 141420Z 01007KT 01/M04 A3034 RMK A01 T00061039  RH  073%=      5-min Rain = 0
KONS 141425Z 01007KT 01/M04 A3034 RMK A01 T00101037  RH  072%=      5-min Rain = 0
KONS 141430Z 02007KT 01/M04 A3035 RMK A01 T00141035  RH  071%=      5-min Rain = 0
KONS 141435Z 03008KT 02/M03 A3035 RMK A01 T00191032  RH  070%=      5-min Rain = 0
KONS 141440Z 03009KT 02/M03 A3036 RMK A01 T00231030  RH  069%=      5-min Rain = 0
KONS 141445Z 04008KT 03/M03 A3036 RMK A01 T00281027  RH  068%=      5-min Rain = 0
KONS 141450Z 05009G14KT 03/M02 A3036 RMK A01 T00311024  RH  068%=      5-min Rain = 0
KONS 141455Z 05010KT 03/M02 A3036 RMK A01 T00341023  RH  067%=      5-min Rain = 0
KONS 141500Z 05011KT 04/M02 A3037 RMK A01 T00361021  RH  067%=      5-min Rain = 0
KONS 141505Z 05012KT 04/M02 A3037 RMK A01 T00371019  RH  068%=      5-min Rain = 0
KONS 141510Z 05013G18KT 04/M01 A3037 RMK A01 T00421013  RH  068%=      5-min Rain = 0
KONS 141515Z 05013KT 04/M01 A3037 RMK A01 T00441011  RH  068%=      5-min Rain = 0
KONS 141520Z 06014KT 04/M01 A3038 RMK A01 T00441011  RH  068%=      5-min Rain = 0
KONS 141525Z 05013KT 05/M01 A3038 RMK A01 T00451011  RH  067%=      5-min Rain = 0
KONS 141530Z 05013KT 05/M01 A3038 RMK A01 T00481010  RH  067%=      5-min Rain = 0
KONS 141535Z 05012KT 05/M01 A3038 RMK A01 T00501009  RH  067%=      5-min Rain = 0
KONS 141540Z 05013G18KT 06/M01 A3039 RMK A01 T00551006  RH  066%=      5-min Rain = 0
KONS 141545Z 05013KT 06/M01 A3039 RMK A01 T00561006  RH  065%=      5-min Rain = 0
KONS 141550Z 05013G19KT 06/M01 A3039 RMK A01 T00591005  RH  064%=      5-min Rain = 0
KONS 141555Z 05015KT 06/M00 A3039 RMK A01 T00601004  RH  064%=      5-min Rain = 0
KONS 141600Z 05014G19KT 06/M00 A304 RMK A01 T00611004  RH  064%=      5-min Rain = 0
KONS 141605Z 05014KT 06/M00 A304 RMK A01 T00631004  RH  063%=      5-min Rain = 0
KONS 141610Z 05014KT 06/M00 A304 RMK A01 T00641004  RH  063%=      5-min Rain = 0
KONS 141615Z 04014KT 07/M01 A304 RMK A01 T00651005  RH  062%=      5-min Rain = 0
KONS 141620Z 05015KT 07/M00 A304 RMK A01 T00681004  RH  061%=      5-min Rain = 0
KONS 141625Z 05014KT 07/M01 A304 RMK A01 T00691005  RH  060%=      5-min Rain = 0
KONS 141630Z 05014KT 07/M01 A3041 RMK A01 T00691005  RH  060%=      5-min Rain = 0
KONS 141635Z 05012G17KT 07/M01 A3041 RMK A01 T00711005  RH  059%=      5-min Rain = 0
KONS 141640Z 05013G18KT 07/M01 A3041 RMK A01 T00711006  RH  059%=      5-min Rain = 0
KONS 141645Z 06014KT 07/M01 A3041 RMK A01 T00731006  RH  058%=      5-min Rain = 0
KONS 141650Z 05013G18KT 08/M01 A3041 RMK A01 T00751007  RH  057%=      5-min Rain = 0
KONS 141655Z 06012KT 08/M01 A3041 RMK A01 T00781007  RH  056%=      5-min Rain = 0
KONS 141700Z 05011KT 08/M01 A3041 RMK A01 T00791006  RH  056%=      5-min Rain = 0
KONS 141705Z 06011G16KT 08/M01 A3041 RMK A01 T00811006  RH  055%=      5-min Rain = 0
KONS 141710Z 06012KT 08/M01 A3041 RMK A01 T00811008  RH  054%=      5-min Rain = 0
KONS 141715Z 06011KT 09/M01 A3041 RMK A01 T00861007  RH  052%=      5-min Rain = 0
KONS 141720Z 06012KT 09/M01 A3041 RMK A01 T00871010  RH  051%=      5-min Rain = 0
KONS 141725Z 06012G18KT 09/M01 A3042 RMK A01 T00871010  RH  051%=      5-min Rain = 0
KONS 141730Z 06011KT 09/M01 A3042 RMK A01 T00881010  RH  051%=      5-min Rain = 0
KONS 141735Z 05012G18KT 09/M01 A3042 RMK A01 T00901013  RH  049%=      5-min Rain = 0
KONS 141740Z 06011G18KT 09/M01 A3041 RMK A01 T00931012  RH  048%=      5-min Rain = 0
KONS 141745Z 05012G18KT 09/M02 A3041 RMK A01 T00941015  RH  047%=      5-min Rain = 0
KONS 141750Z 05011KT 10/M01 A3041 RMK A01 T00951014  RH  047%=      5-min Rain = 0
KONS 141755Z 07008G13KT 09/M01 A3041 RMK A01 T00931013  RH  048%=      5-min Rain = 0
KONS 141800Z 07012G17KT 09/M02 A3041 RMK A01 T00941017  RH  046%=      5-min Rain = 0
KONS 141805Z 06010G15KT 10/M02 A304 RMK A01 T00971018  RH  045%=      5-min Rain = 0
KONS 141810Z 06011G17KT 10/M02 A304 RMK A01 T00961019  RH  045%=      5-min Rain = 0
KONS 141815Z 05009G14KT 10/M02 A304 RMK A01 T01001018  RH  044%=      5-min Rain = 0
KONS 141820Z 06010KT 10/M02 A304 RMK A01 T01001019  RH  044%=      5-min Rain = 0
KONS 141825Z 05010G15KT 10/M02 A304 RMK A01 T01011018  RH  044%=      5-min Rain = 0
KONS 141830Z 04010KT 10/M02 A304 RMK A01 T01001021  RH  043%=      5-min Rain = 0
KONS 141835Z 05011KT 10/M02 A3039 RMK A01 T01021021  RH  043%=      5-min Rain = 0
KONS 141840Z 04007G12KT 10/M02 A3039 RMK A01 T00991020  RH  044%=      5-min Rain = 0
KONS 141845Z 05009G14KT 10/M02 A3039 RMK A01 T01031021  RH  042%=      5-min Rain = 0
KONS 141850Z 04009KT 10/M02 A3039 RMK A01 T01021022  RH  042%=      5-min Rain = 0
KONS 141855Z 05009KT 10/M02 A3039 RMK A01 T01041021  RH  042%=      5-min Rain = 0
KONS 141900Z 05009G16KT 11/M02 A3039 RMK A01 T01051021  RH  042%=      5-min Rain = 0
KONS 141905Z 04010KT 11/M02 A3039 RMK A01 T01081022  RH  041%=      5-min Rain = 0
KONS 141910Z 05009G19KT 11/M02 A3038 RMK A01 T01081021  RH  041%=      5-min Rain = 0
KONS 141915Z 04009KT 11/M02 A3038 RMK A01 T01081022  RH  041%=      5-min Rain = 0
KONS 141920Z 08008KT 11/M02 A3038 RMK A01 T01081021  RH  041%=      5-min Rain = 0
KONS 141925Z 07008G14KT 11/M02 A3038 RMK A01 T01101021  RH  040%=      5-min Rain = 0
KONS 141930Z 05010KT 11/M02 A3038 RMK A01 T01101023  RH  040%=      5-min Rain = 0
KONS 141935Z 06008G13KT 11/M02 A3038 RMK A01 T01121022  RH  039%=      5-min Rain = 0
KONS 141940Z 04008G13KT 11/M02 A3038 RMK A01 T01101023  RH  040%=      5-min Rain = 0
KONS 141945Z 03008G13KT 11/M02 A3037 RMK A01 T01121021  RH  040%=      5-min Rain = 0
KONS 141950Z 04006KT 11/M02 A3037 RMK A01 T01131022  RH  039%=      5-min Rain = 0
KONS 141955Z 08009KT 11/M02 A3037 RMK A01 T01141022  RH  039%=      5-min Rain = 0
KONS 142000Z 08005KT 11/M02 A3037 RMK A01 T01121021  RH  040%=      5-min Rain = 0
KONS 142005Z 04006KT 11/M02 A3037 RMK A01 T01141022  RH  039%=      5-min Rain = 0
KONS 142010Z 06008KT 11/M02 A3036 RMK A01 T01131022  RH  039%=      5-min Rain = 0
KONS 142015Z 05007KT 11/M02 A3036 RMK A01 T01131022  RH  039%=      5-min Rain = 0
KONS 142020Z 05006G11KT 11/M02 A3036 RMK A01 T01141021  RH  039%=      5-min Rain = 0
KONS 142025Z 05007KT 12/M02 A3036 RMK A01 T01171021  RH  038%=      5-min Rain = 0
KONS 142030Z 06008KT 12/M02 A3036 RMK A01 T01171022  RH  038%=      5-min Rain = 0
KONS 142035Z 05005KT 11/M02 A3036 RMK A01 T01121023  RH  039%=      5-min Rain = 0
KONS 142040Z 06004KT 11/M02 A3036 RMK A01 T01141022  RH  039%=      5-min Rain = 0
KONS 142045Z 06008G13KT 12/M02 A3036 RMK A01 T01161022  RH  039%=      5-min Rain = 0
KONS 142050Z 06009KT 12/M02 A3036 RMK A01 T01171022  RH  038%=      5-min Rain = 0
KONS 142055Z 07005KT 12/M02 A3036 RMK A01 T01181022  RH  038%=      5-min Rain = 0
KONS 142100Z 06006KT 12/M02 A3036 RMK A01 T01151021  RH  039%=      5-min Rain = 0
KONS 142105Z 07007KT 12/M02 A3036 RMK A01 T01171020  RH  039%=      5-min Rain = 0
KONS 142110Z 05004KT 11/M02 A3036 RMK A01 T01141022  RH  039%=      5-min Rain = 0
KONS 142115Z 07006KT 11/M02 A3036 RMK A01 T01141021  RH  039%=      5-min Rain = 0
KONS 142120Z 08007KT 12/M02 A3036 RMK A01 T01151022  RH  039%=      5-min Rain = 0
KONS 142125Z 06006KT 12/M02 A3036 RMK A01 T01171021  RH  039%=      5-min Rain = 0
KONS 142130Z 02005KT 12/M02 A3036 RMK A01 T01171021  RH  039%=      5-min Rain = 0
KONS 142135Z 05007KT 12/M02 A3036 RMK A01 T01191020  RH  039%=      5-min Rain = 0
KONS 142140Z 04004KT 12/M02 A3036 RMK A01 T01161022  RH  039%=      5-min Rain = 0
KONS 142145Z 05004KT 12/M02 A3036 RMK A01 T01161020  RH  039%=      5-min Rain = 0
KONS 142150Z 07008KT 12/M02 A3036 RMK A01 T01161020  RH  039%=      5-min Rain = 0
KONS 142155Z 09006KT 12/M02 A3036 RMK A01 T01171020  RH  039%=      5-min Rain = 0
KONS 142200Z 11004KT 12/M02 A3036 RMK A01 T01151021  RH  039%=      5-min Rain = 0
KONS 142205Z 11003KT 12/M02 A3036 RMK A01 T01171020  RH  039%=      5-min Rain = 0
KONS 142210Z 07004KT 12/M02 A3036 RMK A01 T01161021  RH  039%=      5-min Rain = 0
KONS 142215Z 07006KT 12/M02 A3036 RMK A01 T01151021  RH  039%=      5-min Rain = 0
KONS 142220Z 07002KT 11/M02 A3036 RMK A01 T01131021  RH  040%=      5-min Rain = 0
KONS 142225Z 10005KT 11/M02 A3036 RMK A01 T01141020  RH  040%=      5-min Rain = 0
KONS 142230Z 07004KT 11/M02 A3036 RMK A01 T01131020  RH  040%=      5-min Rain = 0
KONS 142235Z 08003KT 11/M02 A3036 RMK A01 T01131020  RH  040%=      5-min Rain = 0
KONS 142240Z 12002KT 11/M02 A3036 RMK A01 T01141019  RH  040%=      5-min Rain = 0
KONS 142245Z 11005KT 11/M02 A3036 RMK A01 T01141020  RH  040%=      5-min Rain = 0
KONS 142250Z 08005KT 11/M02 A3036 RMK A01 T01111019  RH  041%=      5-min Rain = 0
KONS 142255Z 09003KT 11/M02 A3037 RMK A01 T01111019  RH  041%=      5-min Rain = 0
KONS 142300Z 10004KT 11/M02 A3037 RMK A01 T01101020  RH  041%=      5-min Rain = 0
KONS 142305Z 13004KT 11/M02 A3037 RMK A01 T01081020  RH  041%=      5-min Rain = 0
KONS 142310Z 12003KT 11/M02 A3037 RMK A01 T01071021  RH  041%=      5-min Rain = 0
KONS 142315Z 09003KT 10/M02 A3037 RMK A01 T01041022  RH  042%=      5-min Rain = 0
KONS 142320Z 10003KT 10/M02 A3037 RMK A01 T01001022  RH  043%=      5-min Rain = 0
KONS 142325Z 09003KT 10/M02 A3037 RMK A01 T00961023  RH  044%=      5-min Rain = 0
KONS 142330Z 10003KT 09/M02 A3037 RMK A01 T00931024  RH  044%=      5-min Rain = 0
KONS 142335Z 10004KT 09/M03 A3037 RMK A01 T00891025  RH  045%=      5-min Rain = 0
KONS 142340Z 10003KT 08/M03 A3037 RMK A01 T00841026  RH  046%=      5-min Rain = 0
KONS 142345Z 09003KT 08/M02 A3038 RMK A01 T00821023  RH  048%=      5-min Rain = 0
KONS 142350Z 10003KT 08/M02 A3038 RMK A01 T00791024  RH  049%=      5-min Rain = 0
KONS 142355Z 11003KT 08/M02 A3038 RMK A01 T00781024  RH  049%=      5-min Rain = 0
KONS 150000Z 10004KT 07/M03 A3038 RMK A01 T00741026  RH  050%=      5-min Rain = 0
KONS 150005Z 11004KT 07/M03 A3038 RMK A01 T00711027  RH  050%=      5-min Rain = 0
KONS 150010Z 12004KT 07/M03 A3038 RMK A01 T00701028  RH  050%=      5-min Rain = 0
KONS 150015Z 14004KT 06/M03 A3039 RMK A01 T00641028  RH  052%=      5-min Rain = 0
KONS 150020Z 13004KT 06/M03 A3039 RMK A01 T00621027  RH  054%=      5-min Rain = 0
KONS 150025Z 14004KT 06/M03 A3039 RMK A01 T00621027  RH  054%=      5-min Rain = 0
KONS 150030Z 15005KT 06/M03 A3039 RMK A01 T00591027  RH  054%=      5-min Rain = 0
KONS 150035Z 15005KT 05/M03 A304 RMK A01 T00541028  RH  056%=      5-min Rain = 0
KONS 150040Z 14005KT 05/M03 A304 RMK A01 T00501027  RH  058%=      5-min Rain = 0
KONS 150045Z 14004KT 05/M03 A304 RMK A01 T00521026  RH  058%=      5-min Rain = 0
KONS 150050Z 14004KT 06/M03 A304 RMK A01 T00561025  RH  057%=      5-min Rain = 0
KONS 150055Z 15005KT 06/M03 A304 RMK A01 T00551025  RH  057%=      5-min Rain = 0
KONS 150100Z 15005KT 05/M03 A304 RMK A01 T00511027  RH  058%=      5-min Rain = 0
KONS 150105Z 15005KT 05/M03 A304 RMK A01 T00491026  RH  059%=      5-min Rain = 0
KONS 150110Z 14004KT 05/M03 A304 RMK A01 T00491026  RH  059%=      5-min Rain = 0
KONS 150115Z 15004KT 05/M03 A304 RMK A01 T00501026  RH  059%=      5-min Rain = 0
KONS 150120Z 15005KT 05/M03 A3041 RMK A01 T00501027  RH  058%=      5-min Rain = 0
KONS 150125Z 16005KT 05/M03 A3041 RMK A01 T00501026  RH  058%=      5-min Rain = 0
KONS 150130Z 16005KT 05/M03 A3041 RMK A01 T00491027  RH  058%=      5-min Rain = 0
KONS 150135Z 15005KT 05/M03 A3041 RMK A01 T00481028  RH  059%=      5-min Rain = 0
KONS 150140Z 15005KT 04/M03 A3041 RMK A01 T00441031  RH  059%=      5-min Rain = 0
KONS 150145Z 16005KT 04/M03 A3041 RMK A01 T00361030  RH  063%=      5-min Rain = 0
KONS 150150Z 16005KT 03/M03 A3041 RMK A01 T00311030  RH  065%=      5-min Rain = 0
KONS 150155Z 16005KT 03/M03 A3042 RMK A01 T00291031  RH  065%=      5-min Rain = 0
KONS 150200Z 16006KT 03/M03 A3042 RMK A01 T00301031  RH  065%=      5-min Rain = 0
KONS 150205Z 17006KT 03/M03 A3042 RMK A01 T00271032  RH  066%=      5-min Rain = 0
KONS 150210Z 15007KT 03/M03 A3042 RMK A01 T00291031  RH  066%=      5-min Rain = 0
KONS 150215Z 15007KT 03/M03 A3042 RMK A01 T00321031  RH  064%=      5-min Rain = 0
KONS 150220Z 16007KT 03/M03 A3042 RMK A01 T00321032  RH  064%=      5-min Rain = 0
KONS 150225Z 16007KT 03/M03 A3042 RMK A01 T00291034  RH  064%=      5-min Rain = 0
KONS 150230Z 17007KT 03/M04 A3042 RMK A01 T00261035  RH  065%=      5-min Rain = 0
KONS 150235Z 17007KT 02/M03 A3042 RMK A01 T00231034  RH  067%=      5-min Rain = 0
KONS 150240Z 17008KT 02/M03 A3042 RMK A01 T00221034  RH  067%=      5-min Rain = 0
KONS 150245Z 17007KT 02/M04 A3042 RMK A01 T00221035  RH  067%=      5-min Rain = 0
KONS 150250Z 16008KT 02/M04 A3042 RMK A01 T00191035  RH  068%=      5-min Rain = 0
KONS 150255Z 16008KT 02/M04 A3042 RMK A01 T00181036  RH  068%=      5-min Rain = 0
KONS 150300Z 16007KT 02/M04 A3042 RMK A01 T00151037  RH  069%=      5-min Rain = 0
KONS 150305Z 16008KT 02/M04 A3042 RMK A01 T00151036  RH  070%=      5-min Rain = 0
KONS 150310Z 16008KT 02/M04 A3042 RMK A01 T00151035  RH  070%=      5-min Rain = 0
KONS 150315Z 16008KT 02/M03 A3042 RMK A01 T00161034  RH  070%=      5-min Rain = 0
KONS 150320Z 16007KT 02/M03 A3042 RMK A01 T00161034  RH  070%=      5-min Rain = 0
KONS 150325Z 17007KT 02/M03 A3042 RMK A01 T00151033  RH  071%=      5-min Rain = 0
KONS 150330Z 17007KT 01/M03 A3043 RMK A01 T00131032  RH  073%=      5-min Rain = 0
KONS 150335Z 17007KT 01/M03 A3043 RMK A01 T00111034  RH  073%=      5-min Rain = 0
KONS 150340Z 18007KT 00/M04 A3043 RMK A01 T00031038  RH  075%=      5-min Rain = 0
KONS 150345Z 18007KT 00/04 A3043 RMK A01 T00-00-39  RH  076%=      5-min Rain = 0
KONS 150350Z 19007KT M00/M04 A3043 RMK A01 T10041041  RH  077%=      5-min Rain = 0
KONS 150355Z 18007KT M00/M04 A3043 RMK A01 T10031040  RH  077%=      5-min Rain = 0
KONS 150400Z 19007KT M00/M04 A3043 RMK A01 T10031040  RH  077%=      5-min Rain = 0
KONS 150405Z 19007KT M00/M04 A3043 RMK A01 T10021040  RH  076%=      5-min Rain = 0
KONS 150410Z 19007KT M00/M04 A3043 RMK A01 T10031040  RH  077%=      5-min Rain = 0
KONS 150415Z 20007KT M00/M04 A3043 RMK A01 T10021039  RH  077%=      5-min Rain = 0
KONS 150420Z 20007KT M00/M04 A3044 RMK A01 T10031040  RH  077%=      5-min Rain = 0
KONS 150425Z 20007KT M01/M04 A3044 RMK A01 T10051041  RH  077%=      5-min Rain = 0
KONS 150430Z 19007KT M01/M04 A3044 RMK A01 T10071042  RH  078%=      5-min Rain = 0
KONS 150435Z 19007KT M01/M04 A3044 RMK A01 T10081041  RH  079%=      5-min Rain = 0
KONS 150440Z 19007KT M01/M04 A3044 RMK A01 T10081042  RH  079%=      5-min Rain = 0
KONS 150445Z 19007KT M01/M04 A3044 RMK A01 T10101042  RH  080%=      5-min Rain = 0
KONS 150450Z 20007KT M01/M04 A3044 RMK A01 T10081041  RH  080%=      5-min Rain = 0
KONS 150455Z 20007KT M01/M04 A3044 RMK A01 T10091041  RH  080%=      5-min Rain = 0
KONS 150500Z 21006KT M01/M04 A3044 RMK A01 T10111042  RH  080%=      5-min Rain = 0
KONS 150505Z 21007KT M02/M05 A3044 RMK A01 T10171047  RH  081%=      5-min Rain = 0
KONS 150510Z 20007KT M02/M05 A3044 RMK A01 T10201048  RH  082%=      5-min Rain = 0
KONS 150515Z 21007KT M02/M05 A3044 RMK A01 T10171045  RH  083%=      5-min Rain = 0
KONS 150520Z 21007KT M01/M04 A3044 RMK A01 T10131042  RH  082%=      5-min Rain = 0
KONS 150525Z 21007KT M01/M04 A3044 RMK A01 T10091040  RH  080%=      5-min Rain = 0
KONS 150530Z 21007KT M01/M04 A3044 RMK A01 T10091041  RH  080%=      5-min Rain = 0
KONS 150535Z 21007KT M01/M04 A3044 RMK A01 T10121044  RH  080%=      5-min Rain = 0
KONS 150540Z 21007KT M02/M05 A3044 RMK A01 T10161045  RH  082%=      5-min Rain = 0
KONS 150545Z 21007KT M02/M05 A3044 RMK A01 T10171045  RH  082%=      5-min Rain = 0
KONS 150550Z 21007KT M02/M05 A3044 RMK A01 T10171045  RH  082%=      5-min Rain = 0
KONS 150555Z 21007KT M02/M05 A3043 RMK A01 T10181046  RH  082%=      5-min Rain = 0

Page generated in 0.0091 seconds.